sensor_id;sensor_type;location;lat;lon;timestamp;P1;durP1;ratioP1;P2;durP2;ratioP2
74535;SDS011;63013;51.104;-115.370;2023-05-20T00:00:09;12.60;;;7.20;;
74535;SDS011;63013;51.104;-115.370;2023-05-20T00:02:36;14.60;;;6.90;;
74535;SDS011;63013;51.104;-115.370;2023-05-20T00:05:03;15.10;;;7.20;;
74535;SDS011;63013;51.104;-115.370;2023-05-20T00:07:30;12.40;;;7.10;;
74535;SDS011;63013;51.104;-115.370;2023-05-20T00:09:57;12.60;;;7.20;;
74535;SDS011;63013;51.104;-115.370;2023-05-20T00:12:24;14.60;;;7.00;;
74535;SDS011;63013;51.104;-115.370;2023-05-20T00:14:51;13.90;;;6.90;;
74535;SDS011;63013;51.104;-115.370;2023-05-20T00:17:18;11.60;;;6.70;;
74535;SDS011;63013;51.104;-115.370;2023-05-20T00:19:45;13.90;;;6.70;;
74535;SDS011;63013;51.104;-115.370;2023-05-20T00:22:12;12.40;;;6.70;;
74535;SDS011;63013;51.104;-115.370;2023-05-20T00:24:39;10.60;;;5.70;;
74535;SDS011;63013;51.104;-115.370;2023-05-20T00:27:07;13.70;;;6.30;;
74535;SDS011;63013;51.104;-115.370;2023-05-20T00:29:34;13.40;;;6.20;;
74535;SDS011;63013;51.104;-115.370;2023-05-20T00:32:01;10.30;;;5.50;;
74535;SDS011;63013;51.104;-115.370;2023-05-20T00:34:28;11.10;;;5.30;;
74535;SDS011;63013;51.104;-115.370;2023-05-20T00:36:55;11.50;;;5.70;;
74535;SDS011;63013;51.104;-115.370;2023-05-20T00:39:22;11.60;;;5.70;;
74535;SDS011;63013;51.104;-115.370;2023-05-20T00:41:49;10.10;;;5.30;;
74535;SDS011;63013;51.104;-115.370;2023-05-20T00:44:17;10.30;;;5.10;;
74535;SDS011;63013;51.104;-115.370;2023-05-20T00:46:45;8.40;;;5.30;;
74535;SDS011;63013;51.104;-115.370;2023-05-20T00:49:14;11.50;;;5.50;;
74535;SDS011;63013;51.104;-115.370;2023-05-20T00:51:41;10.50;;;5.40;;
74535;SDS011;63013;51.104;-115.370;2023-05-20T00:54:09;9.10;;;5.10;;
74535;SDS011;63013;51.104;-115.370;2023-05-20T00:56:36;9.20;;;5.00;;
74535;SDS011;63013;51.104;-115.370;2023-05-20T00:59:04;9.30;;;5.10;;
74535;SDS011;63013;51.104;-115.370;2023-05-20T01:01:31;8.60;;;5.20;;
74535;SDS011;63013;51.104;-115.370;2023-05-20T01:03:58;8.80;;;5.10;;
74535;SDS011;63013;51.104;-115.370;2023-05-20T01:06:25;10.80;;;5.30;;
74535;SDS011;63013;51.104;-115.370;2023-05-20T01:08:53;9.30;;;5.20;;
74535;SDS011;63013;51.104;-115.370;2023-05-20T01:11:37;7.10;;;4.50;;
74535;SDS011;63013;51.104;-115.370;2023-05-20T01:14:11;8.50;;;4.60;;
74535;SDS011;63013;51.104;-115.370;2023-05-20T01:16:44;8.10;;;4.20;;
74535;SDS011;63013;51.104;-115.370;2023-05-20T01:19:36;6.80;;;4.40;;
74535;SDS011;63013;51.104;-115.370;2023-05-20T01:22:12;9.50;;;4.50;;
74535;SDS011;63013;51.104;-115.370;2023-05-20T01:24:44;9.00;;;4.70;;
74535;SDS011;63013;51.104;-115.370;2023-05-20T01:27:19;6.90;;;4.20;;
74535;SDS011;63013;51.104;-115.370;2023-05-20T01:29:49;9.90;;;3.90;;
74535;SDS011;63013;51.104;-115.370;2023-05-20T01:32:21;7.90;;;4.40;;
74535;SDS011;63013;51.104;-115.370;2023-05-20T01:34:52;7.40;;;4.30;;
74535;SDS011;63013;51.104;-115.370;2023-05-20T01:37:21;8.20;;;4.50;;
74535;SDS011;63013;51.104;-115.370;2023-05-20T01:39:51;8.10;;;4.50;;
74535;SDS011;63013;51.104;-115.370;2023-05-20T01:42:19;7.00;;;4.00;;
74535;SDS011;63013;51.104;-115.370;2023-05-20T01:44:47;6.50;;;4.30;;
74535;SDS011;63013;51.104;-115.370;2023-05-20T01:47:14;7.10;;;4.20;;
74535;SDS011;63013;51.104;-115.370;2023-05-20T01:49:41;6.60;;;4.50;;
74535;SDS011;63013;51.104;-115.370;2023-05-20T01:52:11;7.40;;;4.20;;
74535;SDS011;63013;51.104;-115.370;2023-05-20T01:54:38;7.40;;;4.00;;
74535;SDS011;63013;51.104;-115.370;2023-05-20T01:57:05;7.80;;;4.20;;
74535;SDS011;63013;51.104;-115.370;2023-05-20T01:59:32;7.40;;;4.30;;
74535;SDS011;63013;51.104;-115.370;2023-05-20T02:01:59;7.10;;;4.20;;
74535;SDS011;63013;51.104;-115.370;2023-05-20T02:04:25;7.90;;;4.10;;
74535;SDS011;63013;51.104;-115.370;2023-05-20T02:06:52;6.80;;;4.30;;
74535;SDS011;63013;51.104;-115.370;2023-05-20T02:09:19;6.50;;;4.00;;
74535;SDS011;63013;51.104;-115.370;2023-05-20T02:11:46;6.70;;;4.20;;
74535;SDS011;63013;51.104;-115.370;2023-05-20T02:14:13;7.00;;;4.10;;
74535;SDS011;63013;51.104;-115.370;2023-05-20T02:16:40;6.90;;;4.40;;
74535;SDS011;63013;51.104;-115.370;2023-05-20T02:19:10;6.60;;;4.00;;
74535;SDS011;63013;51.104;-115.370;2023-05-20T02:21:41;6.60;;;4.10;;
74535;SDS011;63013;51.104;-115.370;2023-05-20T02:24:10;6.40;;;4.50;;
74535;SDS011;63013;51.104;-115.370;2023-05-20T02:26:37;7.90;;;4.30;;
74535;SDS011;63013;51.104;-115.370;2023-05-20T02:29:04;7.20;;;4.50;;
74535;SDS011;63013;51.104;-115.370;2023-05-20T02:31:31;6.60;;;4.10;;
74535;SDS011;63013;51.104;-115.370;2023-05-20T02:33:58;7.00;;;4.20;;
74535;SDS011;63013;51.104;-115.370;2023-05-20T02:36:25;6.60;;;4.00;;
74535;SDS011;63013;51.104;-115.370;2023-05-20T02:38:53;7.00;;;4.20;;
74535;SDS011;63013;51.104;-115.370;2023-05-20T02:41:22;6.20;;;4.20;;
74535;SDS011;63013;51.104;-115.370;2023-05-20T02:43:49;6.00;;;4.00;;
74535;SDS011;63013;51.104;-115.370;2023-05-20T02:46:16;6.00;;;4.00;;
74535;SDS011;63013;51.104;-115.370;2023-05-20T02:48:45;5.70;;;3.60;;
74535;SDS011;63013;51.104;-115.370;2023-05-20T02:51:11;6.20;;;4.00;;
74535;SDS011;63013;51.104;-115.370;2023-05-20T02:53:39;5.50;;;3.60;;
74535;SDS011;63013;51.104;-115.370;2023-05-20T02:56:06;8.00;;;4.10;;
74535;SDS011;63013;51.104;-115.370;2023-05-20T02:58:33;6.60;;;3.70;;
74535;SDS011;63013;51.104;-115.370;2023-05-20T03:01:03;6.90;;;3.80;;
74535;SDS011;63013;51.104;-115.370;2023-05-20T03:03:32;8.90;;;4.00;;
74535;SDS011;63013;51.104;-115.370;2023-05-20T03:05:59;5.10;;;3.40;;
74535;SDS011;63013;51.104;-115.370;2023-05-20T03:08:26;6.20;;;3.50;;
74535;SDS011;63013;51.104;-115.370;2023-05-20T03:10:54;6.30;;;3.60;;
74535;SDS011;63013;51.104;-115.370;2023-05-20T03:13:21;5.60;;;3.10;;
74535;SDS011;63013;51.104;-115.370;2023-05-20T03:15:48;6.30;;;3.10;;
74535;SDS011;63013;51.104;-115.370;2023-05-20T03:18:16;5.50;;;3.30;;
74535;SDS011;63013;51.104;-115.370;2023-05-20T03:20:42;4.50;;;3.10;;
74535;SDS011;63013;51.104;-115.370;2023-05-20T03:23:11;5.60;;;3.00;;
74535;SDS011;63013;51.104;-115.370;2023-05-20T03:25:39;5.70;;;3.30;;
74535;SDS011;63013;51.104;-115.370;2023-05-20T03:28:07;6.20;;;3.30;;
74535;SDS011;63013;51.104;-115.370;2023-05-20T03:30:34;4.90;;;3.00;;
74535;SDS011;63013;51.104;-115.370;2023-05-20T03:33:01;6.20;;;3.30;;
74535;SDS011;63013;51.104;-115.370;2023-05-20T03:35:28;5.90;;;3.20;;
74535;SDS011;63013;51.104;-115.370;2023-05-20T03:37:56;5.40;;;3.30;;
74535;SDS011;63013;51.104;-115.370;2023-05-20T03:40:24;5.90;;;3.50;;
74535;SDS011;63013;51.104;-115.370;2023-05-20T03:42:51;6.30;;;3.20;;
74535;SDS011;63013;51.104;-115.370;2023-05-20T03:45:18;4.90;;;3.20;;
74535;SDS011;63013;51.104;-115.370;2023-05-20T03:47:45;5.40;;;3.00;;
74535;SDS011;63013;51.104;-115.370;2023-05-20T03:50:13;6.20;;;3.10;;
74535;SDS011;63013;51.104;-115.370;2023-05-20T03:52:40;6.70;;;3.70;;
74535;SDS011;63013;51.104;-115.370;2023-05-20T03:55:07;6.40;;;3.30;;
74535;SDS011;63013;51.104;-115.370;2023-05-20T03:57:34;6.10;;;3.50;;
74535;SDS011;63013;51.104;-115.370;2023-05-20T04:00:02;5.90;;;3.60;;
74535;SDS011;63013;51.104;-115.370;2023-05-20T04:02:36;6.10;;;3.70;;
74535;SDS011;63013;51.104;-115.370;2023-05-20T04:05:03;6.70;;;3.60;;
74535;SDS011;63013;51.104;-115.370;2023-05-20T04:07:33;6.90;;;4.00;;
74535;SDS011;63013;51.104;-115.370;2023-05-20T04:10:02;7.30;;;3.90;;
74535;SDS011;63013;51.104;-115.370;2023-05-20T04:12:29;5.90;;;3.40;;
74535;SDS011;63013;51.104;-115.370;2023-05-20T04:15:00;6.50;;;3.60;;
74535;SDS011;63013;51.104;-115.370;2023-05-20T04:17:28;6.50;;;3.60;;
74535;SDS011;63013;51.104;-115.370;2023-05-20T04:19:56;6.60;;;3.60;;
74535;SDS011;63013;51.104;-115.370;2023-05-20T04:22:25;8.00;;;3.30;;
74535;SDS011;63013;51.104;-115.370;2023-05-20T04:24:52;7.90;;;3.80;;
74535;SDS011;63013;51.104;-115.370;2023-05-20T04:27:21;5.80;;;3.40;;
74535;SDS011;63013;51.104;-115.370;2023-05-20T04:29:48;7.10;;;3.70;;
74535;SDS011;63013;51.104;-115.370;2023-05-20T04:32:17;6.50;;;3.60;;
74535;SDS011;63013;51.104;-115.370;2023-05-20T04:34:45;15.60;;;3.80;;
74535;SDS011;63013;51.104;-115.370;2023-05-20T04:37:13;7.40;;;3.60;;
74535;SDS011;63013;51.104;-115.370;2023-05-20T04:39:41;7.90;;;3.50;;
74535;SDS011;63013;51.104;-115.370;2023-05-20T04:42:08;7.60;;;3.50;;
74535;SDS011;63013;51.104;-115.370;2023-05-20T04:44:35;6.20;;;3.20;;
74535;SDS011;63013;51.104;-115.370;2023-05-20T04:47:03;6.20;;;3.30;;
74535;SDS011;63013;51.104;-115.370;2023-05-20T04:49:33;6.30;;;3.50;;
74535;SDS011;63013;51.104;-115.370;2023-05-20T04:52:00;6.20;;;3.30;;
74535;SDS011;63013;51.104;-115.370;2023-05-20T04:54:27;7.30;;;3.60;;
74535;SDS011;63013;51.104;-115.370;2023-05-20T04:56:55;6.30;;;3.70;;
74535;SDS011;63013;51.104;-115.370;2023-05-20T04:59:22;5.60;;;3.80;;
74535;SDS011;63013;51.104;-115.370;2023-05-20T05:01:49;5.70;;;3.30;;
74535;SDS011;63013;51.104;-115.370;2023-05-20T05:04:17;7.00;;;3.60;;
74535;SDS011;63013;51.104;-115.370;2023-05-20T05:06:46;5.50;;;3.40;;
74535;SDS011;63013;51.104;-115.370;2023-05-20T05:09:13;5.80;;;3.70;;
74535;SDS011;63013;51.104;-115.370;2023-05-20T05:11:41;8.50;;;4.00;;
74535;SDS011;63013;51.104;-115.370;2023-05-20T05:14:07;5.60;;;3.50;;
74535;SDS011;63013;51.104;-115.370;2023-05-20T05:16:34;5.00;;;3.20;;
74535;SDS011;63013;51.104;-115.370;2023-05-20T05:19:01;8.60;;;3.60;;
74535;SDS011;63013;51.104;-115.370;2023-05-20T05:21:28;6.20;;;3.50;;
74535;SDS011;63013;51.104;-115.370;2023-05-20T05:23:57;5.80;;;3.60;;
74535;SDS011;63013;51.104;-115.370;2023-05-20T05:26:24;5.50;;;3.70;;
74535;SDS011;63013;51.104;-115.370;2023-05-20T05:28:53;5.50;;;3.50;;
74535;SDS011;63013;51.104;-115.370;2023-05-20T05:31:20;5.30;;;3.50;;
74535;SDS011;63013;51.104;-115.370;2023-05-20T05:33:47;6.00;;;3.80;;
74535;SDS011;63013;51.104;-115.370;2023-05-20T05:36:16;5.60;;;3.40;;
74535;SDS011;63013;51.104;-115.370;2023-05-20T05:38:43;5.50;;;3.40;;
74535;SDS011;63013;51.104;-115.370;2023-05-20T05:41:10;4.80;;;3.30;;
74535;SDS011;63013;51.104;-115.370;2023-05-20T05:43:37;4.90;;;3.60;;
74535;SDS011;63013;51.104;-115.370;2023-05-20T05:46:05;5.50;;;3.70;;
74535;SDS011;63013;51.104;-115.370;2023-05-20T05:48:32;4.80;;;3.60;;
74535;SDS011;63013;51.104;-115.370;2023-05-20T05:50:59;6.50;;;3.90;;
74535;SDS011;63013;51.104;-115.370;2023-05-20T05:53:26;5.90;;;3.50;;
74535;SDS011;63013;51.104;-115.370;2023-05-20T05:55:53;5.90;;;3.30;;
74535;SDS011;63013;51.104;-115.370;2023-05-20T05:58:20;6.50;;;4.10;;
74535;SDS011;63013;51.104;-115.370;2023-05-20T06:00:50;5.30;;;3.60;;
74535;SDS011;63013;51.104;-115.370;2023-05-20T06:03:19;5.20;;;3.40;;
74535;SDS011;63013;51.104;-115.370;2023-05-20T06:05:46;4.80;;;3.40;;
74535;SDS011;63013;51.104;-115.370;2023-05-20T06:08:13;5.30;;;3.30;;
74535;SDS011;63013;51.104;-115.370;2023-05-20T06:10:40;7.30;;;3.50;;
74535;SDS011;63013;51.104;-115.370;2023-05-20T06:13:12;5.80;;;3.50;;
74535;SDS011;63013;51.104;-115.370;2023-05-20T06:15:39;4.60;;;3.00;;
74535;SDS011;63013;51.104;-115.370;2023-05-20T06:18:06;5.10;;;3.50;;
74535;SDS011;63013;51.104;-115.370;2023-05-20T06:20:33;5.40;;;3.60;;
74535;SDS011;63013;51.104;-115.370;2023-05-20T06:23:00;5.20;;;3.80;;
74535;SDS011;63013;51.104;-115.370;2023-05-20T06:25:27;4.70;;;3.20;;
74535;SDS011;63013;51.104;-115.370;2023-05-20T06:27:54;4.80;;;3.40;;
74535;SDS011;63013;51.104;-115.370;2023-05-20T06:30:21;6.40;;;3.80;;
74535;SDS011;63013;51.104;-115.370;2023-05-20T06:32:48;5.30;;;3.20;;
74535;SDS011;63013;51.104;-115.370;2023-05-20T06:35:15;4.90;;;3.40;;
74535;SDS011;63013;51.104;-115.370;2023-05-20T06:37:42;5.30;;;3.30;;
74535;SDS011;63013;51.104;-115.370;2023-05-20T06:40:11;5.00;;;3.50;;
74535;SDS011;63013;51.104;-115.370;2023-05-20T06:42:38;5.70;;;3.80;;
74535;SDS011;63013;51.104;-115.370;2023-05-20T06:45:05;4.60;;;3.30;;
74535;SDS011;63013;51.104;-115.370;2023-05-20T06:47:34;5.00;;;3.50;;
74535;SDS011;63013;51.104;-115.370;2023-05-20T06:50:03;4.50;;;3.00;;
74535;SDS011;63013;51.104;-115.370;2023-05-20T06:52:30;5.70;;;3.90;;
74535;SDS011;63013;51.104;-115.370;2023-05-20T06:54:57;4.80;;;3.40;;
74535;SDS011;63013;51.104;-115.370;2023-05-20T06:57:24;4.80;;;3.60;;
74535;SDS011;63013;51.104;-115.370;2023-05-20T06:59:51;5.80;;;3.60;;
74535;SDS011;63013;51.104;-115.370;2023-05-20T07:02:19;5.70;;;3.70;;
74535;SDS011;63013;51.104;-115.370;2023-05-20T07:04:47;5.90;;;3.50;;
74535;SDS011;63013;51.104;-115.370;2023-05-20T07:07:15;6.00;;;3.60;;
74535;SDS011;63013;51.104;-115.370;2023-05-20T07:09:42;5.10;;;3.60;;
74535;SDS011;63013;51.104;-115.370;2023-05-20T07:12:10;4.80;;;3.40;;
74535;SDS011;63013;51.104;-115.370;2023-05-20T07:14:37;4.90;;;3.30;;
74535;SDS011;63013;51.104;-115.370;2023-05-20T07:17:04;5.10;;;3.20;;
74535;SDS011;63013;51.104;-115.370;2023-05-20T07:19:32;4.30;;;3.30;;
74535;SDS011;63013;51.104;-115.370;2023-05-20T07:21:59;5.10;;;3.70;;
74535;SDS011;63013;51.104;-115.370;2023-05-20T07:24:26;5.60;;;3.40;;
74535;SDS011;63013;51.104;-115.370;2023-05-20T07:26:53;4.80;;;3.00;;
74535;SDS011;63013;51.104;-115.370;2023-05-20T07:29:21;6.10;;;3.70;;
74535;SDS011;63013;51.104;-115.370;2023-05-20T07:31:48;5.10;;;3.30;;
74535;SDS011;63013;51.104;-115.370;2023-05-20T07:34:15;5.00;;;3.50;;
74535;SDS011;63013;51.104;-115.370;2023-05-20T07:36:42;4.50;;;3.10;;
74535;SDS011;63013;51.104;-115.370;2023-05-20T07:39:09;5.60;;;3.50;;
74535;SDS011;63013;51.104;-115.370;2023-05-20T07:41:37;5.00;;;3.30;;
74535;SDS011;63013;51.104;-115.370;2023-05-20T07:44:04;5.30;;;3.60;;
74535;SDS011;63013;51.104;-115.370;2023-05-20T07:46:32;4.40;;;3.40;;
74535;SDS011;63013;51.104;-115.370;2023-05-20T07:49:00;5.70;;;3.50;;
74535;SDS011;63013;51.104;-115.370;2023-05-20T07:51:27;4.90;;;3.40;;
74535;SDS011;63013;51.104;-115.370;2023-05-20T07:53:54;5.40;;;3.30;;
74535;SDS011;63013;51.104;-115.370;2023-05-20T07:56:21;4.50;;;3.40;;
74535;SDS011;63013;51.104;-115.370;2023-05-20T07:58:56;6.60;;;3.20;;
74535;SDS011;63013;51.104;-115.370;2023-05-20T08:01:25;4.90;;;3.10;;
74535;SDS011;63013;51.104;-115.370;2023-05-20T08:03:52;5.00;;;3.60;;
74535;SDS011;63013;51.104;-115.370;2023-05-20T08:06:19;4.10;;;3.00;;
74535;SDS011;63013;51.104;-115.370;2023-05-20T08:08:47;4.70;;;3.30;;
74535;SDS011;63013;51.104;-115.370;2023-05-20T08:11:14;5.10;;;3.30;;
74535;SDS011;63013;51.104;-115.370;2023-05-20T08:13:40;4.50;;;3.70;;
74535;SDS011;63013;51.104;-115.370;2023-05-20T08:16:08;4.30;;;3.40;;
74535;SDS011;63013;51.104;-115.370;2023-05-20T08:18:35;4.80;;;3.30;;
74535;SDS011;63013;51.104;-115.370;2023-05-20T08:21:03;4.10;;;3.20;;
74535;SDS011;63013;51.104;-115.370;2023-05-20T08:23:34;4.70;;;3.00;;
74535;SDS011;63013;51.104;-115.370;2023-05-20T08:26:02;3.90;;;3.00;;
74535;SDS011;63013;51.104;-115.370;2023-05-20T08:28:29;4.70;;;3.20;;
74535;SDS011;63013;51.104;-115.370;2023-05-20T08:30:57;4.00;;;3.20;;
74535;SDS011;63013;51.104;-115.370;2023-05-20T08:33:26;4.20;;;3.10;;
74535;SDS011;63013;51.104;-115.370;2023-05-20T08:35:53;5.20;;;3.10;;
74535;SDS011;63013;51.104;-115.370;2023-05-20T08:38:20;6.40;;;3.20;;
74535;SDS011;63013;51.104;-115.370;2023-05-20T08:40:57;5.00;;;3.40;;
74535;SDS011;63013;51.104;-115.370;2023-05-20T08:43:25;4.60;;;3.10;;
74535;SDS011;63013;51.104;-115.370;2023-05-20T08:45:52;4.60;;;3.50;;
74535;SDS011;63013;51.104;-115.370;2023-05-20T08:48:22;5.10;;;3.10;;
74535;SDS011;63013;51.104;-115.370;2023-05-20T08:50:51;6.20;;;3.20;;
74535;SDS011;63013;51.104;-115.370;2023-05-20T08:53:21;5.80;;;3.20;;
74535;SDS011;63013;51.104;-115.370;2023-05-20T08:55:59;4.00;;;2.90;;
74535;SDS011;63013;51.104;-115.370;2023-05-20T08:58:31;4.10;;;2.80;;
74535;SDS011;63013;51.104;-115.370;2023-05-20T09:00:58;4.10;;;3.00;;
74535;SDS011;63013;51.104;-115.370;2023-05-20T09:03:26;4.70;;;3.30;;
74535;SDS011;63013;51.104;-115.370;2023-05-20T09:06:02;4.50;;;3.30;;
74535;SDS011;63013;51.104;-115.370;2023-05-20T09:08:31;4.20;;;3.00;;
74535;SDS011;63013;51.104;-115.370;2023-05-20T09:10:59;4.10;;;2.70;;
74535;SDS011;63013;51.104;-115.370;2023-05-20T09:13:29;4.80;;;2.90;;
74535;SDS011;63013;51.104;-115.370;2023-05-20T09:16:00;4.00;;;3.20;;
74535;SDS011;63013;51.104;-115.370;2023-05-20T09:18:27;4.50;;;3.10;;
74535;SDS011;63013;51.104;-115.370;2023-05-20T09:20:55;4.90;;;3.40;;
74535;SDS011;63013;51.104;-115.370;2023-05-20T09:23:22;4.80;;;3.10;;
74535;SDS011;63013;51.104;-115.370;2023-05-20T09:25:53;3.90;;;2.90;;
74535;SDS011;63013;51.104;-115.370;2023-05-20T09:28:22;4.70;;;3.00;;
74535;SDS011;63013;51.104;-115.370;2023-05-20T09:30:57;5.10;;;3.30;;
74535;SDS011;63013;51.104;-115.370;2023-05-20T09:33:32;4.50;;;3.00;;
74535;SDS011;63013;51.104;-115.370;2023-05-20T09:36:06;5.30;;;2.90;;
74535;SDS011;63013;51.104;-115.370;2023-05-20T09:38:37;6.80;;;3.00;;
74535;SDS011;63013;51.104;-115.370;2023-05-20T09:41:07;3.50;;;2.60;;
74535;SDS011;63013;51.104;-115.370;2023-05-20T09:43:41;4.10;;;3.10;;
74535;SDS011;63013;51.104;-115.370;2023-05-20T09:46:09;4.40;;;2.70;;
74535;SDS011;63013;51.104;-115.370;2023-05-20T09:48:37;4.30;;;2.80;;
74535;SDS011;63013;51.104;-115.370;2023-05-20T09:51:05;4.50;;;3.20;;
74535;SDS011;63013;51.104;-115.370;2023-05-20T09:53:32;4.30;;;3.00;;
74535;SDS011;63013;51.104;-115.370;2023-05-20T09:56:00;5.60;;;3.00;;
74535;SDS011;63013;51.104;-115.370;2023-05-20T09:58:28;4.40;;;2.90;;
74535;SDS011;63013;51.104;-115.370;2023-05-20T10:00:55;4.30;;;3.10;;
74535;SDS011;63013;51.104;-115.370;2023-05-20T10:03:23;4.70;;;3.20;;
74535;SDS011;63013;51.104;-115.370;2023-05-20T10:10:31;4.50;;;2.90;;
74535;SDS011;63013;51.104;-115.370;2023-05-20T10:13:01;4.00;;;2.80;;
74535;SDS011;63013;51.104;-115.370;2023-05-20T10:22:07;4.70;;;2.80;;
74535;SDS011;63013;51.104;-115.370;2023-05-20T10:24:41;4.80;;;3.20;;
74535;SDS011;63013;51.104;-115.370;2023-05-20T10:27:13;4.60;;;3.10;;
74535;SDS011;63013;51.104;-115.370;2023-05-20T10:29:54;4.70;;;2.90;;
74535;SDS011;63013;51.104;-115.370;2023-05-20T10:32:27;4.70;;;3.10;;
74535;SDS011;63013;51.104;-115.370;2023-05-20T10:35:03;4.00;;;2.80;;
74535;SDS011;63013;51.104;-115.370;2023-05-20T10:37:44;4.00;;;2.70;;
74535;SDS011;63013;51.104;-115.370;2023-05-20T10:40:15;5.60;;;3.30;;
74535;SDS011;63013;51.104;-115.370;2023-05-20T10:42:44;5.20;;;3.20;;
74535;SDS011;63013;51.104;-115.370;2023-05-20T10:45:25;5.00;;;3.20;;
74535;SDS011;63013;51.104;-115.370;2023-05-20T10:47:54;4.40;;;3.20;;
74535;SDS011;63013;51.104;-115.370;2023-05-20T10:50:36;3.60;;;2.60;;
74535;SDS011;63013;51.104;-115.370;2023-05-20T10:53:10;4.30;;;3.10;;
74535;SDS011;63013;51.104;-115.370;2023-05-20T10:55:40;4.40;;;3.10;;
74535;SDS011;63013;51.104;-115.370;2023-05-20T10:58:14;3.60;;;2.60;;
74535;SDS011;63013;51.104;-115.370;2023-05-20T11:00:42;3.60;;;2.80;;
74535;SDS011;63013;51.104;-115.370;2023-05-20T11:03:09;3.90;;;2.70;;
74535;SDS011;63013;51.104;-115.370;2023-05-20T11:05:40;5.10;;;2.80;;
74535;SDS011;63013;51.104;-115.370;2023-05-20T11:08:09;4.20;;;2.80;;
74535;SDS011;63013;51.104;-115.370;2023-05-20T11:10:37;3.90;;;2.80;;
74535;SDS011;63013;51.104;-115.370;2023-05-20T11:13:04;3.60;;;2.60;;
74535;SDS011;63013;51.104;-115.370;2023-05-20T11:15:34;3.50;;;2.80;;
74535;SDS011;63013;51.104;-115.370;2023-05-20T11:18:05;3.50;;;2.80;;
74535;SDS011;63013;51.104;-115.370;2023-05-20T11:20:32;3.30;;;2.90;;
74535;SDS011;63013;51.104;-115.370;2023-05-20T11:23:04;4.30;;;3.10;;
74535;SDS011;63013;51.104;-115.370;2023-05-20T11:25:37;4.40;;;3.00;;
74535;SDS011;63013;51.104;-115.370;2023-05-20T11:28:08;3.90;;;2.90;;
74535;SDS011;63013;51.104;-115.370;2023-05-20T11:30:55;4.40;;;2.80;;
74535;SDS011;63013;51.104;-115.370;2023-05-20T11:33:24;4.00;;;2.80;;
74535;SDS011;63013;51.104;-115.370;2023-05-20T11:35:56;4.00;;;2.80;;
74535;SDS011;63013;51.104;-115.370;2023-05-20T11:38:22;4.40;;;3.10;;
74535;SDS011;63013;51.104;-115.370;2023-05-20T11:40:54;4.40;;;3.20;;
74535;SDS011;63013;51.104;-115.370;2023-05-20T11:43:22;4.30;;;3.00;;
74535;SDS011;63013;51.104;-115.370;2023-05-20T11:45:56;4.70;;;3.00;;
74535;SDS011;63013;51.104;-115.370;2023-05-20T11:48:27;5.60;;;3.10;;
74535;SDS011;63013;51.104;-115.370;2023-05-20T11:50:55;4.00;;;2.50;;
74535;SDS011;63013;51.104;-115.370;2023-05-20T11:53:23;3.30;;;2.50;;
74535;SDS011;63013;51.104;-115.370;2023-05-20T11:55:58;4.30;;;2.70;;
74535;SDS011;63013;51.104;-115.370;2023-05-20T11:58:28;3.70;;;2.40;;
74535;SDS011;63013;51.104;-115.370;2023-05-20T12:00:56;4.20;;;3.00;;
74535;SDS011;63013;51.104;-115.370;2023-05-20T12:03:23;4.50;;;3.20;;
74535;SDS011;63013;51.104;-115.370;2023-05-20T12:05:51;4.40;;;2.80;;
74535;SDS011;63013;51.104;-115.370;2023-05-20T12:08:18;3.90;;;2.80;;
74535;SDS011;63013;51.104;-115.370;2023-05-20T12:10:45;3.90;;;2.70;;
74535;SDS011;63013;51.104;-115.370;2023-05-20T12:13:12;3.50;;;2.40;;
74535;SDS011;63013;51.104;-115.370;2023-05-20T12:15:40;4.50;;;2.80;;
74535;SDS011;63013;51.104;-115.370;2023-05-20T12:18:07;4.00;;;2.70;;
74535;SDS011;63013;51.104;-115.370;2023-05-20T12:20:34;4.00;;;2.80;;
74535;SDS011;63013;51.104;-115.370;2023-05-20T12:23:02;3.10;;;2.60;;
74535;SDS011;63013;51.104;-115.370;2023-05-20T12:25:29;4.60;;;2.90;;
74535;SDS011;63013;51.104;-115.370;2023-05-20T12:27:57;3.70;;;2.80;;
74535;SDS011;63013;51.104;-115.370;2023-05-20T12:30:24;4.70;;;2.90;;
74535;SDS011;63013;51.104;-115.370;2023-05-20T12:32:51;3.90;;;2.70;;
74535;SDS011;63013;51.104;-115.370;2023-05-20T12:35:37;4.40;;;2.80;;
74535;SDS011;63013;51.104;-115.370;2023-05-20T12:38:08;4.40;;;3.00;;
74535;SDS011;63013;51.104;-115.370;2023-05-20T12:40:36;3.50;;;2.60;;
74535;SDS011;63013;51.104;-115.370;2023-05-20T12:43:03;4.00;;;2.70;;
74535;SDS011;63013;51.104;-115.370;2023-05-20T12:45:30;4.60;;;2.60;;
74535;SDS011;63013;51.104;-115.370;2023-05-20T12:47:58;4.10;;;2.60;;
74535;SDS011;63013;51.104;-115.370;2023-05-20T12:50:25;4.10;;;2.60;;
74535;SDS011;63013;51.104;-115.370;2023-05-20T12:52:53;3.80;;;2.70;;
74535;SDS011;63013;51.104;-115.370;2023-05-20T12:55:20;4.20;;;2.70;;
74535;SDS011;63013;51.104;-115.370;2023-05-20T12:57:47;3.80;;;2.80;;
74535;SDS011;63013;51.104;-115.370;2023-05-20T13:00:15;3.50;;;2.60;;
74535;SDS011;63013;51.104;-115.370;2023-05-20T13:02:42;3.90;;;2.70;;
74535;SDS011;63013;51.104;-115.370;2023-05-20T13:05:10;3.70;;;2.60;;
74535;SDS011;63013;51.104;-115.370;2023-05-20T13:07:37;4.30;;;2.90;;
74535;SDS011;63013;51.104;-115.370;2023-05-20T13:10:06;3.70;;;2.70;;
74535;SDS011;63013;51.104;-115.370;2023-05-20T13:12:35;3.20;;;2.50;;
74535;SDS011;63013;51.104;-115.370;2023-05-20T13:15:03;4.90;;;3.10;;
74535;SDS011;63013;51.104;-115.370;2023-05-20T13:17:30;5.10;;;2.90;;
74535;SDS011;63013;51.104;-115.370;2023-05-20T13:19:58;4.30;;;2.90;;
74535;SDS011;63013;51.104;-115.370;2023-05-20T13:22:25;4.00;;;2.40;;
74535;SDS011;63013;51.104;-115.370;2023-05-20T13:24:52;4.10;;;2.70;;
74535;SDS011;63013;51.104;-115.370;2023-05-20T13:27:19;3.60;;;2.80;;
74535;SDS011;63013;51.104;-115.370;2023-05-20T13:29:46;3.70;;;3.00;;
74535;SDS011;63013;51.104;-115.370;2023-05-20T13:32:13;3.80;;;2.60;;
74535;SDS011;63013;51.104;-115.370;2023-05-20T13:34:40;5.00;;;2.60;;
74535;SDS011;63013;51.104;-115.370;2023-05-20T13:37:07;3.10;;;2.50;;
74535;SDS011;63013;51.104;-115.370;2023-05-20T13:39:34;4.60;;;2.50;;
74535;SDS011;63013;51.104;-115.370;2023-05-20T13:42:02;3.70;;;2.80;;
74535;SDS011;63013;51.104;-115.370;2023-05-20T13:44:29;3.80;;;2.90;;
74535;SDS011;63013;51.104;-115.370;2023-05-20T13:46:57;3.10;;;2.60;;
74535;SDS011;63013;51.104;-115.370;2023-05-20T13:49:24;4.10;;;2.60;;
74535;SDS011;63013;51.104;-115.370;2023-05-20T13:51:51;3.90;;;2.50;;
74535;SDS011;63013;51.104;-115.370;2023-05-20T13:54:19;4.40;;;3.00;;
74535;SDS011;63013;51.104;-115.370;2023-05-20T13:56:46;4.80;;;2.60;;
74535;SDS011;63013;51.104;-115.370;2023-05-20T13:59:13;4.30;;;2.60;;
74535;SDS011;63013;51.104;-115.370;2023-05-20T14:01:40;2.90;;;2.30;;
74535;SDS011;63013;51.104;-115.370;2023-05-20T14:04:10;4.80;;;2.60;;
74535;SDS011;63013;51.104;-115.370;2023-05-20T14:06:38;3.80;;;2.60;;
74535;SDS011;63013;51.104;-115.370;2023-05-20T14:09:06;3.70;;;2.50;;
74535;SDS011;63013;51.104;-115.370;2023-05-20T14:11:34;4.00;;;2.40;;
74535;SDS011;63013;51.104;-115.370;2023-05-20T14:14:01;4.10;;;2.50;;
74535;SDS011;63013;51.104;-115.370;2023-05-20T14:16:29;3.80;;;2.60;;
74535;SDS011;63013;51.104;-115.370;2023-05-20T14:18:56;4.60;;;2.50;;
74535;SDS011;63013;51.104;-115.370;2023-05-20T14:21:23;3.60;;;2.40;;
74535;SDS011;63013;51.104;-115.370;2023-05-20T14:23:50;3.80;;;2.50;;
74535;SDS011;63013;51.104;-115.370;2023-05-20T14:26:17;4.60;;;2.60;;